Time;durP1;ratioP1;P1;durP2;ratioP2;P2;SDS_P1;SDS_P2;PMS_P1;PMS_P2;Temp;Humidity;BMP_temperature;BMP_pressure;BME280_temperature;BME280_humidity;BME280_pressure;Samples;Min_cycle;Max_cycle;Signal;HPM_P1;HPM_P2
2023/05/30 00:02:13;;;;;;;5.00;1.42;;;20.60;1.00;;;;;;5032930;28;20067;-48
2023/05/30 00:04:40;;;;;;;5.38;1.38;;;20.60;1.00;;;;;;5032759;28;20068;-48
2023/05/30 00:07:07;;;;;;;8.23;1.88;;;20.60;1.00;;;;;;5032861;28;20060;-50
2023/05/30 00:09:34;;;;;;;3.97;0.90;;;20.60;1.00;;;;;;5032754;28;20046;-49
2023/05/30 00:12:02;;;;;;;4.20;1.08;;;20.60;1.00;;;;;;5032559;28;20050;-48
2023/05/30 00:14:29;;;;;;;4.28;1.42;;;20.60;1.00;;;;;;5032429;28;20052;-49
2023/05/30 00:16:58;;;;;;;4.18;1.27;;;20.60;1.00;;;;;;5032487;28;20107;-50
2023/05/30 00:19:24;;;;;;;2.88;1.38;;;20.60;1.00;;;;;;5032355;28;20041;-47
2023/05/30 00:21:52;;;;;;;7.13;1.52;;;20.50;1.00;;;;;;5032400;28;20077;-49
2023/05/30 00:24:20;;;;;;;3.55;1.33;;;20.50;1.00;;;;;;5032427;28;20060;-48
2023/05/30 00:26:47;;;;;;;3.65;1.30;;;20.60;1.00;;;;;;5032494;28;20045;-47
2023/05/30 00:29:15;;;;;;;5.82;1.70;;;20.60;1.00;;;;;;5032174;28;20121;-48
2023/05/30 00:31:42;;;;;;;3.67;1.10;;;20.50;1.00;;;;;;5032491;28;20064;-48
2023/05/30 00:34:09;;;;;;;3.58;1.05;;;20.60;1.00;;;;;;5032147;28;20470;-48
2023/05/30 00:36:37;;;;;;;3.75;1.33;;;20.50;1.00;;;;;;5032257;28;20118;-49
2023/05/30 00:39:04;;;;;;;3.30;1.15;;;20.50;1.00;;;;;;5031894;28;20417;-48
2023/05/30 00:41:31;;;;;;;3.35;1.00;;;20.50;1.00;;;;;;5014307;28;20072;-48
2023/05/30 00:43:58;;;;;;;5.53;1.48;;;20.50;1.00;;;;;;5014200;28;20456;-49
2023/05/30 00:46:29;;;;;;;3.92;1.23;;;20.50;1.00;;;;;;5014349;28;20051;-51
2023/05/30 00:48:58;;;;;;;2.83;1.48;;;20.50;1.00;;;;;;5031772;28;20041;-49
2023/05/30 00:51:28;;;;;;;6.03;1.60;;;20.50;1.00;;;;;;5030788;28;20052;-50
2023/05/30 00:53:55;;;;;;;4.57;1.30;;;20.50;1.00;;;;;;5014125;28;20049;-48
2023/05/30 00:56:26;;;;;;;4.75;1.65;;;20.50;1.00;;;;;;5014297;28;20042;-50
2023/05/30 00:58:53;;;;;;;2.92;1.75;;;20.40;1.00;;;;;;5031499;28;20043;-50
2023/05/30 01:01:20;;;;;;;4.93;1.30;;;20.50;1.00;;;;;;5031946;28;20045;-49
2023/05/30 01:03:47;;;;;;;4.75;1.73;;;20.40;1.00;;;;;;5031836;28;20041;-49
2023/05/30 01:06:15;;;;;;;5.95;1.67;;;20.50;1.00;;;;;;5013920;28;20375;-49
2023/05/30 01:08:41;;;;;;;4.03;1.42;;;20.50;1.00;;;;;;5031619;28;20049;-48
2023/05/30 01:11:41;;;;;;;6.85;1.88;;;20.50;1.00;;;;;;5013689;28;20493;-48
2023/05/30 01:14:20;;;;;;;4.35;1.10;;;20.40;1.00;;;;;;5013734;28;20069;-51
2023/05/30 01:16:55;;;;;;;7.43;1.58;;;20.40;1.00;;;;;;5031835;28;20046;-49
2023/05/30 01:19:46;;;;;;;3.30;1.38;;;20.40;1.00;;;;;;5022613;28;20081;-52
2023/05/30 01:22:32;;;;;;;6.25;1.75;;;20.40;1.00;;;;;;5030456;28;20088;-49
2023/05/30 01:25:12;;;;;;;3.20;1.13;;;20.40;1.00;;;;;;5013791;28;20104;-51
2023/05/30 01:28:01;;;;;;;3.88;1.73;;;20.40;1.00;;;;;;5013970;28;20041;-49
2023/05/30 01:30:30;;;;;;;5.00;1.42;;;20.40;1.00;;;;;;4992740;28;20057;-49
2023/05/30 01:33:00;;;;;;;4.97;1.35;;;20.40;1.00;;;;;;5014021;28;20497;-49
2023/05/30 01:35:27;;;;;;;4.95;1.23;;;20.40;1.00;;;;;;5031674;28;20045;-50
2023/05/30 01:37:53;;;;;;;2.55;1.20;;;20.40;1.00;;;;;;5031977;28;20051;-49
2023/05/30 01:40:24;;;;;;;6.03;1.20;;;20.40;1.00;;;;;;5023492;28;20477;-50
2023/05/30 01:43:17;;;;;;;3.10;1.40;;;20.40;1.00;;;;;;5013911;28;20048;-49
2023/05/30 01:45:56;;;;;;;4.63;1.35;;;20.40;1.00;;;;;;4991511;28;20060;-49
2023/05/30 01:48:57;;;;;;;4.57;1.60;;;20.40;1.00;;;;;;5005802;28;20038;-49
2023/05/30 01:51:56;;;;;;;3.22;1.10;;;20.40;1.00;;;;;;4987961;28;20281;-51
2023/05/30 01:54:24;;;;;;;4.90;1.45;;;20.30;1.00;;;;;;5015695;28;20065;-48
2023/05/30 01:56:56;;;;;;;6.53;1.10;;;20.30;1.00;;;;;;5017462;28;20041;-49
2023/05/30 01:59:25;;;;;;;4.40;1.40;;;20.30;1.00;;;;;;5009394;28;20049;-52
2023/05/30 02:01:56;;;;;;;4.57;2.00;;;20.30;1.00;;;;;;5017507;28;20052;-48
2023/05/30 02:04:25;;;;;;;4.38;1.20;;;20.30;1.00;;;;;;5033402;28;20049;-51
2023/05/30 02:06:51;;;;;;;2.55;1.20;;;20.30;1.00;;;;;;5035223;28;20044;-51
2023/05/30 02:09:18;;;;;;;5.40;1.95;;;20.30;1.00;;;;;;5016939;28;20558;-48
2023/05/30 02:11:45;;;;;;;7.57;1.48;;;20.30;1.00;;;;;;5033939;28;20140;-48
2023/05/30 02:14:12;;;;;;;7.03;1.85;;;20.30;1.00;;;;;;5016823;28;20136;-48
2023/05/30 02:16:39;;;;;;;4.50;1.25;;;20.30;1.00;;;;;;5017009;28;20042;-47
2023/05/30 02:19:14;;;;;;;4.28;1.50;;;20.30;1.00;;;;;;5016720;28;20045;-48
2023/05/30 02:21:42;;;;;;;6.15;1.40;;;20.30;1.00;;;;;;5034773;28;20048;-49
2023/05/30 02:24:10;;;;;;;3.55;1.10;;;20.30;1.00;;;;;;5016554;28;20049;-48
2023/05/30 02:26:37;;;;;;;2.85;1.10;;;20.30;1.00;;;;;;5016754;28;20079;-48
2023/05/30 02:29:03;;;;;;;5.93;2.53;;;20.30;1.00;;;;;;5016523;28;20045;-49
2023/05/30 02:31:30;;;;;;;4.88;1.50;;;20.30;1.00;;;;;;5016798;28;20107;-47
2023/05/30 02:33:58;;;;;;;6.10;1.50;;;20.30;1.00;;;;;;5034461;28;20045;-48
2023/05/30 02:36:24;;;;;;;2.72;1.27;;;20.20;1.00;;;;;;5016753;28;20049;-48
2023/05/30 02:38:51;;;;;;;3.30;1.65;;;20.30;1.00;;;;;;5016616;28;20048;-51
2023/05/30 02:41:18;;;;;;;2.95;1.08;;;20.20;1.00;;;;;;5016342;28;20045;-49
2023/05/30 02:43:45;;;;;;;2.88;1.08;;;20.20;1.00;;;;;;5033085;28;20107;-49
2023/05/30 02:46:11;;;;;;;5.05;1.50;;;20.20;1.00;;;;;;5034310;28;20053;-48
2023/05/30 02:48:40;;;;;;;5.25;1.17;;;20.20;1.00;;;;;;5016328;28;20038;-50
2023/05/30 02:51:07;;;;;;;7.97;1.92;;;20.20;1.00;;;;;;5034137;28;20041;-48
2023/05/30 02:53:34;;;;;;;7.70;1.55;;;20.20;1.00;;;;;;5016313;28;20049;-49
2023/05/30 02:56:01;;;;;;;3.85;1.30;;;20.20;1.00;;;;;;5016150;28;20042;-48
2023/05/30 02:58:49;;;;;;;3.45;1.33;;;20.20;1.00;;;;;;5033596;28;20455;-48
2023/05/30 03:01:29;;;;;;;4.22;1.42;;;20.20;1.00;;;;;;5008954;28;20061;-48
2023/05/30 03:03:58;;;;;;;2.78;0.88;;;20.20;1.00;;;;;;5016150;28;20068;-48
2023/05/30 03:06:37;;;;;;;4.63;1.30;;;20.20;1.00;;;;;;5008224;28;20063;-48
2023/05/30 03:09:19;;;;;;;4.47;1.65;;;20.20;1.00;;;;;;5015852;28;20119;-48
2023/05/30 03:11:46;;;;;;;3.33;1.50;;;20.20;1.00;;;;;;5016273;28;20063;-51
2023/05/30 03:14:13;;;;;;;4.55;1.52;;;20.20;1.00;;;;;;5015680;28;20049;-47
2023/05/30 03:16:42;;;;;;;4.20;1.00;;;20.10;1.00;;;;;;5015986;28;20045;-47
2023/05/30 03:19:11;;;;;;;3.72;1.40;;;20.10;1.00;;;;;;5015616;28;20037;-48
2023/05/30 03:21:41;;;;;;;6.05;1.83;;;20.10;1.00;;;;;;5015892;28;20046;-49
2023/05/30 03:24:08;;;;;;;3.88;1.13;;;20.10;1.00;;;;;;5015562;28;20053;-48
2023/05/30 03:26:41;;;;;;;;;;;20.10;1.00;;;;;;5016291;28;20084;-48
2023/05/30 03:29:08;;;;;;;8.02;1.77;;;20.10;1.00;;;;;;5032084;28;20012;-49
2023/05/30 03:31:36;;;;;;;4.18;1.40;;;20.10;1.00;;;;;;5032313;28;20053;-50
2023/05/30 03:34:04;;;;;;;6.07;0.93;;;20.10;1.00;;;;;;5015408;28;20088;-48
2023/05/30 03:36:31;;;;;;;2.42;0.80;;;20.10;1.00;;;;;;5015488;28;20053;-47
2023/05/30 03:38:58;;;;;;;5.32;1.63;;;20.10;1.00;;;;;;5015181;28;20049;-47
2023/05/30 03:41:25;;;;;;;6.78;1.30;;;20.10;1.00;;;;;;5033214;28;20489;-48
2023/05/30 03:43:52;;;;;;;2.92;1.08;;;20.10;1.00;;;;;;5015695;28;20041;-50
2023/05/30 03:46:21;;;;;;;2.75;1.23;;;20.10;1.00;;;;;;5015172;28;20057;-49
2023/05/30 03:48:48;;;;;;;2.60;1.33;;;20.00;1.00;;;;;;5014700;28;20044;-49
2023/05/30 03:51:15;;;;;;;3.20;1.50;;;20.00;1.00;;;;;;5013949;28;20083;-48
2023/05/30 03:53:42;;;;;;;4.88;1.90;;;20.00;1.00;;;;;;5013334;28;20237;-49
2023/05/30 03:56:09;;;;;;;2.75;1.38;;;20.00;1.00;;;;;;5014288;28;20046;-48
2023/05/30 03:58:36;;;;;;;6.25;1.05;;;20.00;1.00;;;;;;5014447;28;20083;-48
2023/05/30 04:01:03;;;;;;;5.40;1.40;;;20.00;1.00;;;;;;5014952;28;20077;-51
2023/05/30 04:03:29;;;;;;;3.05;1.30;;;20.00;1.00;;;;;;5015145;28;20568;-48
2023/05/30 04:05:58;;;;;;;4.28;2.40;;;20.00;1.00;;;;;;5032797;28;20450;-48
2023/05/30 04:08:28;;;;;;;4.68;1.40;;;20.00;1.00;;;;;;5014722;28;20042;-48
2023/05/30 04:10:55;;;;;;;6.20;1.85;;;20.00;1.00;;;;;;5014753;28;20129;-48
2023/05/30 04:13:22;;;;;;;4.60;1.25;;;20.00;1.00;;;;;;5014983;28;20137;-48
2023/05/30 04:15:49;;;;;;;2.30;1.15;;;20.00;1.00;;;;;;5014509;28;20041;-48
2023/05/30 04:18:16;;;;;;;6.22;1.20;;;20.00;1.00;;;;;;5014360;28;20041;-48
2023/05/30 04:20:44;;;;;;;5.53;1.30;;;20.00;1.00;;;;;;5014644;28;20436;-48
2023/05/30 04:23:11;;;;;;;6.72;1.88;;;20.00;1.00;;;;;;5014775;28;20052;-48
2023/05/30 04:25:38;;;;;;;4.85;1.10;;;19.90;1.00;;;;;;5014497;28;20041;-49
2023/05/30 04:28:06;;;;;;;8.13;1.35;;;19.90;1.00;;;;;;5014421;28;20408;-50
2023/05/30 04:30:35;;;;;;;2.35;1.13;;;19.90;1.00;;;;;;5014651;28;20041;-48
2023/05/30 04:33:02;;;;;;;5.88;1.88;;;19.90;1.00;;;;;;5014447;28;20064;-48
2023/05/30 04:35:30;;;;;;;4.82;1.45;;;19.90;1.00;;;;;;5032312;28;20041;-48
2023/05/30 04:37:58;;;;;;;2.20;1.10;;;19.90;1.00;;;;;;5032353;28;20099;-48
2023/05/30 04:40:27;;;;;;;3.70;1.30;;;19.90;1.00;;;;;;5014069;28;20545;-47
2023/05/30 04:42:55;;;;;;;3.45;1.20;;;19.90;1.00;;;;;;5014461;28;20137;-48
2023/05/30 04:45:28;;;;;;;4.07;1.55;;;19.90;1.00;;;;;;5014298;28;20107;-48
2023/05/30 04:47:56;;;;;;;4.68;1.52;;;19.90;1.00;;;;;;5014374;28;20073;-54
2023/05/30 04:50:24;;;;;;;3.90;1.40;;;19.90;1.00;;;;;;5014055;28;20041;-49
2023/05/30 04:52:51;;;;;;;4.30;1.67;;;19.90;1.00;;;;;;5014312;28;20073;-50
2023/05/30 04:55:19;;;;;;;4.05;1.85;;;19.90;1.00;;;;;;5013995;28;20046;-49
2023/05/30 04:57:45;;;;;;;4.10;1.10;;;19.90;1.00;;;;;;5014385;28;20053;-49
2023/05/30 05:00:13;;;;;;;3.78;1.00;;;19.90;1.00;;;;;;5013983;28;20107;-51
2023/05/30 05:02:42;;;;;;;6.60;1.77;;;19.90;1.00;;;;;;5014308;28;20400;-52
2023/05/30 05:05:10;;;;;;;3.65;1.60;;;19.90;1.00;;;;;;5031543;28;20033;-52
2023/05/30 05:07:37;;;;;;;5.20;1.77;;;19.80;1.00;;;;;;5031976;28;20048;-49
2023/05/30 05:10:11;;;;;;;4.63;1.60;;;19.80;1.00;;;;;;5031893;28;20378;-48
2023/05/30 05:12:38;;;;;;;4.78;0.98;;;19.80;1.00;;;;;;5031909;28;20056;-48
2023/05/30 05:15:05;;;;;;;3.80;1.27;;;19.90;1.00;;;;;;5031741;28;20041;-51
2023/05/30 05:17:32;;;;;;;4.50;1.17;;;19.80;1.00;;;;;;5023907;28;20378;-48
2023/05/30 05:20:00;;;;;;;3.53;1.95;;;19.90;1.00;;;;;;5031249;28;20049;-51
2023/05/30 05:22:31;;;;;;;3.15;1.15;;;19.80;1.00;;;;;;5031692;28;20056;-48
2023/05/30 05:24:58;;;;;;;4.53;1.20;;;19.90;1.00;;;;;;5031622;28;20508;-52
2023/05/30 05:27:27;;;;;;;2.30;1.25;;;19.80;1.00;;;;;;5031430;28;20041;-50
2023/05/30 05:29:54;;;;;;;2.22;1.00;;;19.80;1.00;;;;;;5034929;28;20040;-53
2023/05/30 05:32:21;;;;;;;4.18;1.45;;;19.80;1.00;;;;;;5035752;28;20057;-49
2023/05/30 05:34:48;;;;;;;2.75;1.25;;;19.80;1.00;;;;;;5039365;28;20236;-51
2023/05/30 05:37:14;;;;;;;3.40;1.45;;;19.80;1.00;;;;;;5044874;28;20044;-50
2023/05/30 05:39:41;;;;;;;3.60;1.40;;;19.80;1.00;;;;;;5046290;28;20124;-54
2023/05/30 05:42:08;;;;;;;2.97;1.80;;;19.80;1.00;;;;;;5045936;28;20041;-51
2023/05/30 05:44:35;;;;;;;4.93;1.38;;;19.80;1.00;;;;;;5048077;28;20045;-52
2023/05/30 05:47:02;;;;;;;6.20;1.40;;;19.80;1.00;;;;;;5039169;28;20396;-52
2023/05/30 05:49:28;;;;;;;5.55;1.67;;;19.80;1.00;;;;;;5035385;28;20090;-50
2023/05/30 05:51:55;;;;;;;4.60;1.15;;;19.80;1.00;;;;;;5018077;28;20392;-48
2023/05/30 05:54:22;;;;;;;2.80;1.00;;;19.80;1.00;;;;;;5035166;28;20444;-51
2023/05/30 05:56:49;;;;;;;3.38;1.50;;;19.80;1.00;;;;;;5035622;28;20124;-52
2023/05/30 05:59:16;;;;;;;5.38;2.03;;;19.80;1.00;;;;;;5035784;28;20030;-50
2023/05/30 06:01:42;;;;;;;5.28;1.40;;;19.80;1.00;;;;;;5035314;28;20029;-48
2023/05/30 06:04:11;;;;;;;3.95;1.50;;;19.70;1.00;;;;;;5035352;28;20132;-51
2023/05/30 06:06:38;;;;;;;3.67;1.58;;;19.80;1.00;;;;;;5035385;28;20256;-48
2023/05/30 06:09:05;;;;;;;5.47;1.35;;;19.80;1.00;;;;;;5035256;28;20037;-51
2023/05/30 06:11:32;;;;;;;4.00;1.13;;;19.70;1.00;;;;;;5036415;28;20041;-50
2023/05/30 06:13:59;;;;;;;4.43;1.50;;;19.70;1.00;;;;;;5035898;28;20059;-49
2023/05/30 06:16:26;;;;;;;5.20;1.27;;;19.70;1.00;;;;;;5036345;28;20077;-50
2023/05/30 06:18:53;;;;;;;4.72;1.42;;;19.70;1.00;;;;;;5036084;28;20507;-49
2023/05/30 06:21:20;;;;;;;4.68;2.03;;;19.70;1.00;;;;;;5034933;28;20042;-50
2023/05/30 06:23:47;;;;;;;5.28;2.15;;;19.70;1.00;;;;;;5017107;28;20048;-49
2023/05/30 06:26:14;;;;;;;4.13;1.13;;;19.70;1.00;;;;;;5034335;28;20060;-50
2023/05/30 06:28:40;;;;;;;4.15;1.13;;;19.70;1.00;;;;;;5034626;28;20042;-48
2023/05/30 06:31:07;;;;;;;4.85;1.60;;;19.70;1.00;;;;;;5034568;28;20042;-47
2023/05/30 06:33:34;;;;;;;2.53;1.17;;;19.70;1.00;;;;;;5034251;28;20041;-49
2023/05/30 06:36:01;;;;;;;2.83;0.90;;;19.70;1.00;;;;;;5034354;28;20370;-51
2023/05/30 06:38:27;;;;;;;5.53;1.30;;;19.70;1.00;;;;;;5034282;28;20133;-50
2023/05/30 06:40:54;;;;;;;4.03;1.10;;;19.70;1.00;;;;;;5034242;28;20121;-47
2023/05/30 06:43:22;;;;;;;4.47;1.08;;;19.70;1.00;;;;;;5034543;28;20064;-49
2023/05/30 06:45:49;;;;;;;2.90;1.20;;;19.70;1.00;;;;;;5016547;28;20033;-51
2023/05/30 06:48:16;;;;;;;2.58;1.10;;;19.70;1.00;;;;;;5034162;28;20041;-50
2023/05/30 06:50:43;;;;;;;3.30;1.40;;;19.70;1.00;;;;;;5034253;28;20077;-51
2023/05/30 06:53:10;;;;;;;3.15;1.20;;;19.70;1.00;;;;;;5034295;28;20048;-50
2023/05/30 06:55:36;;;;;;;5.75;1.17;;;19.70;1.00;;;;;;5029638;22;20452;-48
2023/05/30 06:58:06;;;;;;;3.45;1.27;;;19.70;1.00;;;;;;5016218;28;20384;-51
2023/05/30 07:00:33;;;;;;;2.38;1.00;;;19.70;1.00;;;;;;5013269;28;20084;-48
2023/05/30 07:03:00;;;;;;;4.05;1.30;;;19.60;1.00;;;;;;5018862;28;20491;-49
2023/05/30 07:05:27;;;;;;;3.97;1.02;;;19.60;1.00;;;;;;5004764;28;20038;-48
2023/05/30 07:07:54;;;;;;;4.03;1.30;;;19.60;1.00;;;;;;4994604;28;20065;-55
2023/05/30 07:10:21;;;;;;;3.85;0.98;;;19.60;1.00;;;;;;4994246;28;20074;-49
2023/05/30 07:12:48;;;;;;;2.78;1.30;;;19.60;1.00;;;;;;4997462;28;20117;-50
2023/05/30 07:15:15;;;;;;;1.45;0.80;;;19.60;1.00;;;;;;4994252;28;20049;-54
2023/05/30 07:17:42;;;;;;;1.90;1.10;;;19.60;1.00;;;;;;4994660;28;20038;-55
2023/05/30 07:20:09;;;;;;;4.30;1.80;;;19.60;1.00;;;;;;4994272;28;20494;-51
2023/05/30 07:22:37;;;;;;;3.53;1.45;;;19.60;1.00;;;;;;4994252;28;20421;-50
2023/05/30 07:25:06;;;;;;;2.88;1.00;;;19.60;1.00;;;;;;4994266;28;20046;-51
2023/05/30 07:27:33;;;;;;;2.15;0.93;;;19.60;1.00;;;;;;4994198;28;20049;-50
2023/05/30 07:30:00;;;;;;;3.63;1.10;;;19.60;1.00;;;;;;4996298;28;20038;-50
2023/05/30 07:32:27;;;;;;;2.80;0.98;;;19.60;1.00;;;;;;4994003;28;20039;-50
2023/05/30 07:34:54;;;;;;;3.38;1.48;;;19.60;1.00;;;;;;4994133;28;20043;-51
2023/05/30 07:37:21;;;;;;;2.20;1.17;;;19.60;1.00;;;;;;4994259;28;20047;-51
2023/05/30 07:39:48;;;;;;;1.77;1.10;;;19.60;1.00;;;;;;4993908;28;20393;-49
2023/05/30 07:42:15;;;;;;;3.30;1.08;;;19.60;1.00;;;;;;4994217;28;20038;-53
2023/05/30 07:44:42;;;;;;;2.28;1.15;;;19.60;1.00;;;;;;4994006;28;20513;-51
2023/05/30 07:47:08;;;;;;;1.63;0.80;;;19.60;1.00;;;;;;4993817;28;20517;-51
2023/05/30 07:49:35;;;;;;;4.53;1.38;;;19.60;1.00;;;;;;5001823;28;20053;-51
2023/05/30 07:52:02;;;;;;;2.58;1.27;;;19.60;1.00;;;;;;4993236;28;20053;-54
2023/05/30 07:54:29;;;;;;;1.92;1.33;;;19.50;1.00;;;;;;4993592;28;20064;-48
2023/05/30 07:56:56;;;;;;;1.75;0.95;;;19.60;1.00;;;;;;4993487;28;20122;-50
2023/05/30 07:59:23;;;;;;;2.05;1.08;;;19.50;1.00;;;;;;4993634;28;20124;-50
2023/05/30 08:01:50;;;;;;;3.03;1.15;;;19.50;1.00;;;;;;4993649;28;20046;-53
2023/05/30 08:04:16;;;;;;;3.13;1.13;;;19.50;1.00;;;;;;4995019;28;20125;-52
2023/05/30 08:06:43;;;;;;;4.57;1.33;;;19.50;1.00;;;;;;4997380;28;20034;-51
2023/05/30 08:09:10;;;;;;;2.40;0.82;;;19.50;1.00;;;;;;4997602;28;20038;-49
2023/05/30 08:11:37;;;;;;;1.80;1.05;;;19.50;1.00;;;;;;5001337;28;20142;-54
2023/05/30 08:14:04;;;;;;;1.67;1.02;;;19.50;1.00;;;;;;4993259;28;20053;-50
2023/05/30 08:16:32;;;;;;;2.58;1.05;;;19.50;1.00;;;;;;5000972;28;20129;-50
2023/05/30 08:18:59;;;;;;;2.38;1.30;;;19.50;1.00;;;;;;4975683;28;20130;-54
2023/05/30 08:21:26;;;;;;;3.50;0.85;;;19.50;1.00;;;;;;5001134;28;20039;-50
2023/05/30 08:23:54;;;;;;;2.92;0.70;;;19.50;1.00;;;;;;4993101;28;20046;-52
2023/05/30 08:26:24;;;;;;;2.22;1.10;;;19.50;1.00;;;;;;4992895;28;20486;-51
2023/05/30 08:28:51;;;;;;;4.32;1.00;;;19.50;1.00;;;;;;4975973;28;20113;-50
2023/05/30 08:31:19;;;;;;;3.35;1.10;;;19.50;1.00;;;;;;5000991;28;20048;-50
2023/05/30 08:33:46;;;;;;;2.75;1.02;;;19.50;1.00;;;;;;4992891;28;20121;-50
2023/05/30 08:36:14;;;;;;;1.80;0.95;;;19.50;1.00;;;;;;4992835;28;20038;-50
2023/05/30 08:38:40;;;;;;;3.10;1.00;;;19.50;1.00;;;;;;5000824;28;20490;-50
2023/05/30 08:41:07;;;;;;;2.72;1.15;;;19.50;1.00;;;;;;4992753;28;20125;-53
2023/05/30 08:43:34;;;;;;;1.58;0.47;;;19.50;1.00;;;;;;5000819;28;20038;-49
2023/05/30 08:46:04;;;;;;;4.22;1.55;;;19.50;1.00;;;;;;4992776;28;20042;-50
2023/05/30 08:48:33;;;;;;;1.73;0.80;;;19.50;1.00;;;;;;4992600;28;20437;-48
2023/05/30 08:51:01;;;;;;;2.13;0.80;;;19.50;1.00;;;;;;4992672;28;20100;-50
2023/05/30 08:53:36;;;;;;;2.13;0.73;;;19.50;1.00;;;;;;4992994;28;20505;-52
2023/05/30 08:56:10;;;;;;;1.80;1.20;;;19.50;1.00;;;;;;4992462;28;20074;-52
2023/05/30 08:58:42;;;;;;;1.75;0.90;;;19.50;1.00;;;;;;4992346;28;20419;-51
2023/05/30 09:01:10;;;;;;;4.47;1.15;;;19.50;1.00;;;;;;4992505;28;20498;-53
2023/05/30 09:03:42;;;;;;;1.63;0.77;;;19.50;1.00;;;;;;4994452;28;20093;-50
2023/05/30 09:06:09;;;;;;;1.33;0.75;;;19.50;1.00;;;;;;4992566;28;20495;-48
2023/05/30 09:08:36;;;;;;;2.20;0.80;;;19.50;1.00;;;;;;4992153;28;20487;-52
2023/05/30 09:11:04;;;;;;;1.17;0.60;;;19.50;1.00;;;;;;4992592;28;20092;-51
2023/05/30 09:13:31;;;;;;;1.38;0.47;;;19.50;1.00;;;;;;4992484;28;20038;-49
2023/05/30 09:15:57;;;;;;;1.98;0.77;;;19.50;1.00;;;;;;4992184;28;20509;-50
2023/05/30 09:18:24;;;;;;;1.27;0.77;;;19.50;1.00;;;;;;4992362;28;20498;-51
2023/05/30 09:20:52;;;;;;;4.80;0.93;;;19.50;1.00;;;;;;4992262;28;20421;-50
2023/05/30 09:23:19;;;;;;;2.25;0.63;;;19.50;1.00;;;;;;4992393;28;20068;-50
2023/05/30 09:25:48;;;;;;;1.77;0.77;;;19.50;1.00;;;;;;4984366;28;20038;-48
2023/05/30 09:28:22;;;;;;;2.47;0.70;;;19.50;1.00;;;;;;4992299;28;20043;-48
2023/05/30 09:30:58;;;;;;;2.40;0.90;;;19.50;1.00;;;;;;4992259;28;20051;-53
2023/05/30 09:33:40;;;;;;;1.67;0.75;;;19.50;1.00;;;;;;4992293;28;20046;-52
2023/05/30 09:36:12;;;;;;;2.00;0.57;;;19.50;1.00;;;;;;4992245;28;20046;-50
2023/05/30 09:38:39;;;;;;;2.17;0.60;;;19.50;1.00;;;;;;4992142;28;20516;-51
2023/05/30 09:41:06;;;;;;;2.28;0.95;;;19.50;1.00;;;;;;4991819;28;20643;-54
2023/05/30 09:43:34;;;;;;;1.48;0.82;;;19.50;1.00;;;;;;5001699;28;20039;-52
2023/05/30 09:46:05;;;;;;;2.05;0.40;;;19.50;1.00;;;;;;4998121;28;20038;-51
2023/05/30 09:48:32;;;;;;;1.80;0.60;;;19.50;1.00;;;;;;4993275;28;20039;-49
2023/05/30 09:51:00;;;;;;;2.20;1.02;;;19.50;1.00;;;;;;4998319;28;20045;-52
2023/05/30 09:53:29;;;;;;;1.58;0.60;;;19.50;1.00;;;;;;5000084;28;20048;-53
2023/05/30 09:55:57;;;;;;;1.00;0.60;;;19.50;1.00;;;;;;4991795;28;20475;-52
2023/05/30 09:58:24;;;;;;;1.27;0.57;;;19.50;1.00;;;;;;4991897;28;20498;-48
2023/05/30 10:00:52;;;;;;;1.08;0.52;;;19.50;1.00;;;;;;4995788;28;20081;-48
2023/05/30 10:03:20;;;;;;;1.30;0.50;;;19.50;1.00;;;;;;5005819;28;20065;-50
2023/05/30 10:05:48;;;;;;;1.60;0.65;;;19.50;1.00;;;;;;5000067;28;20602;-49
2023/05/30 10:08:15;;;;;;;2.75;0.43;;;19.50;1.00;;;;;;4991772;28;20045;-49
2023/05/30 10:10:43;;;;;;;1.40;0.52;;;19.50;1.00;;;;;;4991717;28;20157;-49
2023/05/30 10:13:10;;;;;;;1.63;0.50;;;19.50;1.00;;;;;;4991840;28;20038;-52
2023/05/30 10:15:37;;;;;;;2.42;0.70;;;19.50;1.00;;;;;;5002163;28;20096;-52
2023/05/30 10:18:08;;;;;;;1.25;0.75;;;19.50;1.00;;;;;;5000903;28;20045;-51
2023/05/30 10:20:37;;;;;;;0.95;0.60;;;19.50;1.00;;;;;;5005273;28;20085;-50
2023/05/30 10:23:07;;;;;;;0.82;0.40;;;19.50;1.00;;;;;;5001145;28;20065;-53
2023/05/30 10:25:42;;;;;;;1.40;0.50;;;19.50;1.00;;;;;;4997011;28;20066;-49
2023/05/30 10:28:12;;;;;;;1.10;0.60;;;19.50;1.00;;;;;;4995396;28;20042;-51
2023/05/30 10:30:39;;;;;;;1.00;0.38;;;19.50;1.00;;;;;;4997059;28;20070;-52
2023/05/30 10:33:07;;;;;;;0.75;0.55;;;19.40;1.00;;;;;;5001048;28;20038;-52
2023/05/30 10:35:35;;;;;;;1.55;0.50;;;19.50;1.00;;;;;;4994802;28;20043;-50
2023/05/30 10:38:07;;;;;;;1.38;0.40;;;19.50;1.00;;;;;;4995324;28;20070;-52
2023/05/30 10:40:47;;;;;;;0.95;0.55;;;19.50;1.00;;;;;;4994903;28;20074;-50
2023/05/30 10:43:47;;;;;;;2.20;0.45;;;19.50;1.00;;;;;;4995195;28;20490;-52
2023/05/30 10:46:41;;;;;;;1.25;0.40;;;19.50;1.00;;;;;;4979454;28;20050;-51
2023/05/30 10:49:18;;;;;;;0.88;0.38;;;19.50;1.00;;;;;;4979733;28;20514;-55
2023/05/30 10:51:58;;;;;;;0.80;0.38;;;19.50;1.00;;;;;;4995151;28;20565;-49
2023/05/30 10:54:27;;;;;;;1.55;0.40;;;19.50;1.00;;;;;;4994781;28;20038;-52
2023/05/30 10:56:54;;;;;;;1.88;0.88;;;19.40;1.00;;;;;;4994684;28;20046;-49
2023/05/30 10:59:22;;;;;;;0.55;0.30;;;19.50;1.00;;;;;;4994922;28;20045;-51
2023/05/30 11:02:04;;;;;;;2.75;0.60;;;19.50;1.00;;;;;;4994438;28;20084;-50
2023/05/30 11:04:38;;;;;;;2.15;0.40;;;19.50;1.00;;;;;;5008259;28;20034;-50
2023/05/30 11:07:13;;;;;;;1.45;0.50;;;19.50;1.00;;;;;;5002771;28;20042;-51
2023/05/30 11:09:41;;;;;;;0.85;0.50;;;19.50;1.00;;;;;;5002498;28;20046;-51
2023/05/30 11:12:21;;;;;;;1.15;0.50;;;19.50;1.00;;;;;;4994604;28;20458;-53
2023/05/30 11:14:59;;;;;;;1.38;0.60;;;19.40;1.00;;;;;;4994467;28;20118;-51
2023/05/30 11:17:32;;;;;;;1.05;0.43;;;19.50;1.00;;;;;;4994466;28;20054;-49
2023/05/30 11:20:17;;;;;;;2.00;0.35;;;19.50;1.00;;;;;;4998845;28;20484;-51
2023/05/30 11:23:02;;;;;;;1.58;0.50;;;19.50;1.00;;;;;;4995210;28;20038;-52
2023/05/30 11:25:32;;;;;;;1.02;0.38;;;19.50;1.00;;;;;;5002308;28;20038;-53
2023/05/30 11:28:34;;;;;;;1.05;0.40;;;19.50;1.00;;;;;;5008701;28;20046;-52
2023/05/30 11:31:17;;;;;;;1.98;0.38;;;19.50;1.00;;;;;;4994289;28;20038;-48
2023/05/30 11:33:46;;;;;;;1.10;0.55;;;19.50;1.00;;;;;;4983928;28;20140;-57
2023/05/30 11:36:13;;;;;;;1.25;0.52;;;19.50;1.00;;;;;;4995240;28;20038;-56
2023/05/30 11:38:45;;;;;;;1.00;0.35;;;19.50;1.00;;;;;;5001346;28;20042;-57
2023/05/30 11:41:16;;;;;;;1.23;0.60;;;19.50;1.00;;;;;;4994171;28;20137;-56
2023/05/30 11:43:43;;;;;;;1.38;0.60;;;19.50;1.00;;;;;;4999231;28;20050;-56
2023/05/30 11:46:11;;;;;;;0.95;0.32;;;19.50;1.00;;;;;;4994083;28;20034;-56
2023/05/30 11:48:38;;;;;;;0.80;0.47;;;19.50;1.00;;;;;;4993963;28;20046;-58
2023/05/30 11:51:06;;;;;;;1.83;0.40;;;19.50;1.00;;;;;;5000089;28;20436;-56
2023/05/30 11:53:35;;;;;;;1.10;0.47;;;19.40;1.00;;;;;;4996248;28;20051;-56
2023/05/30 11:56:02;;;;;;;1.02;0.50;;;19.50;1.00;;;;;;4993501;28;20058;-57
2023/05/30 11:58:29;;;;;;;0.65;0.32;;;19.40;1.00;;;;;;4993339;28;20046;-57
2023/05/30 12:00:56;;;;;;;1.20;0.40;;;19.50;1.00;;;;;;4993311;28;20496;-56
2023/05/30 12:03:23;;;;;;;1.70;0.38;;;19.50;1.00;;;;;;4993694;28;20079;-54
2023/05/30 12:05:51;;;;;;;1.30;0.35;;;19.50;1.00;;;;;;4997931;28;20047;-56
2023/05/30 12:08:18;;;;;;;1.15;0.55;;;19.50;1.00;;;;;;4995307;28;20157;-55
2023/05/30 12:10:50;;;;;;;1.95;0.40;;;19.50;1.00;;;;;;4993972;28;20077;-57
2023/05/30 12:13:18;;;;;;;0.70;0.40;;;19.50;1.00;;;;;;4998536;28;20046;-53
2023/05/30 12:15:45;;;;;;;1.38;0.50;;;19.50;1.00;;;;;;4994071;28;20105;-56
2023/05/30 12:18:15;;;;;;;0.45;0.22;;;19.50;1.00;;;;;;4993029;28;20518;-55
2023/05/30 12:20:43;;;;;;;1.42;0.40;;;19.40;1.00;;;;;;4992815;28;20057;-57
2023/05/30 12:23:11;;;;;;;1.15;0.40;;;19.40;1.00;;;;;;4995796;28;20562;-56
2023/05/30 12:25:37;;;;;;;0.80;0.50;;;19.40;1.00;;;;;;4992716;28;20074;-55
2023/05/30 12:28:05;;;;;;;0.85;0.40;;;19.40;1.00;;;;;;4997577;28;20489;-57
2023/05/30 12:30:36;;;;;;;1.38;0.38;;;19.50;1.00;;;;;;5012220;28;20432;-57
2023/05/30 12:33:20;;;;;;;0.50;0.30;;;19.40;1.00;;;;;;4992663;28;20471;-57
2023/05/30 12:35:52;;;;;;;0.90;0.30;;;19.40;1.00;;;;;;4997110;28;20038;-58
2023/05/30 12:38:19;;;;;;;0.60;0.30;;;19.40;1.00;;;;;;5003753;28;20438;-57
2023/05/30 12:40:47;;;;;;;1.27;0.45;;;19.40;1.00;;;;;;4997584;28;20410;-57
2023/05/30 12:43:16;;;;;;;2.08;0.65;;;19.40;1.00;;;;;;4993679;28;20034;-56
2023/05/30 12:45:46;;;;;;;1.23;0.70;;;19.40;1.00;;;;;;4994123;28;20471;-58
2023/05/30 12:48:13;;;;;;;1.23;0.22;;;19.40;1.00;;;;;;4992666;28;20046;-55
2023/05/30 12:50:40;;;;;;;1.75;0.50;;;19.40;1.00;;;;;;4992448;28;20125;-58
2023/05/30 12:53:07;;;;;;;1.83;0.38;;;19.40;1.00;;;;;;4999488;28;20383;-58
2023/05/30 12:55:33;;;;;;;2.90;0.50;;;19.40;1.00;;;;;;5000451;28;20046;-58
2023/05/30 12:58:00;;;;;;;1.52;0.47;;;19.40;1.00;;;;;;5000732;28;20042;-58
2023/05/30 13:00:27;;;;;;;1.25;0.47;;;19.40;1.00;;;;;;5008026;28;20653;-57
2023/05/30 13:02:54;;;;;;;2.67;0.45;;;19.40;1.00;;;;;;5000692;28;20393;-56
2023/05/30 13:05:21;;;;;;;2.70;0.60;;;19.50;1.00;;;;;;4998964;28;20116;-58
2023/05/30 13:07:48;;;;;;;2.95;0.50;;;19.40;1.00;;;;;;4993526;28;20438;-56
2023/05/30 13:10:16;;;;;;;1.67;0.65;;;19.40;1.00;;;;;;4988622;28;20081;-54